Hoffman, MN (56339)

9:14 AM CST on February 07, 2016 (GMT -0600)
Hoffman MN | | Change Station
CLOSE
Current Station
Personal Weather Station
Location: Hoffman, MN
Elevation: 1240 ft
Nearby Weather Stations
Active Advisory: Blizzard Warning

Elev 1240 ft 45.83 °N, 95.78 °W | Updated 2 minutes ago

Mostly Cloudy
Mostly Cloudy
38.1 °F
Feels Like 31 °F
N
11.0
Wind Variable Wind from West
Gusts 17.0 mph

Today
High -- | Low -- °F
--% Chance of Precip.
Yesterday
High -- | Low -- °F
Precip. -- in
Pressure 29.64 in
Visibility 4.0 miles
Clouds Mostly Cloudy 3800 ft
Windchill 31 °F
Dew Point 26 °F
Humidity 61%
Rainfall 0.02 in
Snow Depth Not available.
7:37 AM 5:37 PM
Waning Crescent, 1% visible
METAR KY63 071458Z AUTO 33017G25KT 4SM HZ BKN038 01/M03 A2964 RMK AO2 T00101030
Pressure 29.64 in
Visibility 4.0 miles
Clouds Mostly Cloudy 3800 ft
Windchill 31 °F
Dew Point 26 °F
Humidity 61%
Rainfall 0.02 in
Snow Depth Not available.
7:37 AM 5:37 PM
Waning Crescent, 1% visible
METAR KY63 071458Z AUTO 33017G25KT 4SM HZ BKN038 01/M03 A2964 RMK AO2 T00101030

10-Day Weather Forecast

Almanac

Astronomy

Feb. 07, 2016 Rise Set
Actual Time
Civil Twilight
Nautical Twilight
Astronomical Twilight
Moon
Length of Visible Light
Length of Day
Tomorrow will be .
, % of the Moon is Illuminated

Today's Extremes

State Highs State Lows

Community

WunderPhotos

Upload Photos

1,891,214 photos uploaded!

WunderBlog® & News

Nearby

Air Quality

  Air Quality AQ Index Pollutant
Not available.

Snow Depth

Station Depth Elevation

Earthquake Activity

City Distance Mag. Time & Date
Minimum magnitude displayed is 2.5.

Coastal Water Temperatures

Place Temperature

Stations

Nearby Weather Stations

Station Location Temp. Windchill Dew Point Humidity Wind Precip. Elev Updated Type
                   

Watches & Warnings

Blizzard Warning
Issued: 4:22 AM CST Feb. 7, 2016 – National Weather Service

... Blizzard Warning remains in effect from 9 am this morning to
6 am CST Monday...

* timing... expect blizzard conditions to develop around 9 am
Sunday and then diminish around 6 am Monday.

* Winds / visibilities... winds gusting as high as 50 mph will
cause whiteout conditions in blowing snow. Significant drifting
of the snow is likely... especially in open areas.

* Snow accumulations... up to 1 to 3 inches.

* Impacts... travel will be very difficult.

Precautionary/preparedness actions...

A Blizzard Warning means severe winter weather conditions are
expected or occurring. Falling and blowing snow with strong winds
and poor visibilities are likely. This will lead to whiteout
conditions... making travel extremely dangerous. Do not travel. If
you must travel... have a winter survival kit with you. If you get
stranded... stay with your vehicle. The latest Road conditions for
the state you are calling from can be obtained by calling 5 1 1.